Time;durP1;ratioP1;P1;durP2;ratioP2;P2;SDS_P1;SDS_P2;PMS_P1;PMS_P2;Temp;Humidity;BMP_temperature;BMP_pressure;BME280_temperature;BME280_humidity;BME280_pressure;Samples;Min_cycle;Max_cycle;Signal;HPM_P1;HPM_P2
2022/06/20 00:00:20;;;;;;;;;;;;;;;25.07;47.64;97137.97;5093083;28;20007;-59
2022/06/20 00:02:51;;;;;;;;;;;;;;;25.26;47.26;97141.22;5090663;28;19920;-60
2022/06/20 00:05:20;;;;;;;;;;;;;;;25.03;47.44;97148.34;5095011;28;20023;-59
2022/06/20 00:07:48;;;;;;;;;;;;;;;25.00;47.45;97138.09;5093120;28;19954;-59
2022/06/20 00:10:17;;;;;;;;;;;;;;;25.25;46.86;97139.66;5092123;28;19974;-59
2022/06/20 00:12:47;;;;;;;;;;;;;;;25.00;47.46;97140.88;5075494;28;19920;-58
2022/06/20 00:15:23;;;;;;;;;;;;;;;25.03;47.18;97128.09;5093547;28;20374;-59
2022/06/20 00:17:51;;;;;;;;;;;;;;;25.02;47.39;97127.31;5074849;28;20321;-58
2022/06/20 00:20:19;;;;;;;;;;;;;;;25.08;47.04;97120.09;5074543;28;19923;-59
2022/06/20 00:22:47;;;;;;;;;;;;;;;24.95;47.56;97121.13;5092359;28;19954;-58
2022/06/20 00:25:16;;;;;;;;;;;;;;;24.90;47.83;97124.41;5091231;28;20365;-58
2022/06/20 00:27:45;;;;;;;;;;;;;;;24.70;48.32;97121.56;5092201;28;19923;-57
2022/06/20 00:30:15;;;;;;;;;;;;;;;25.13;46.81;97126.38;5094547;28;20356;-59
2022/06/20 00:32:43;;;;;;;;;;;;;;;24.81;47.83;97117.41;5069331;28;20063;-53
2022/06/20 00:35:11;;;;;;;;;;;;;;;24.88;47.73;97126.84;5077119;28;19993;-59
2022/06/20 00:37:40;;;;;;;;;;;;;;;24.87;47.56;97120.47;5088438;28;19921;-59
2022/06/20 00:40:14;;;;;;;;;;;;;;;24.62;48.08;97120.16;5088402;28;19920;-59
2022/06/20 00:42:43;;;;;;;;;;;;;;;24.73;47.90;97120.75;5092593;28;19927;-58
2022/06/20 00:45:11;;;;;;;;;;;;;;;24.82;47.56;97123.72;5094373;28;19965;-59
2022/06/20 00:47:41;;;;;;;;;;;;;;;24.62;48.29;97120.16;5078664;28;20417;-59
2022/06/20 00:50:11;;;;;;;;;;;;;;;24.55;48.42;97126.59;5090839;28;19924;-58
2022/06/20 00:52:40;;;;;;;;;;;;;;;24.54;48.40;97125.81;5092274;28;20377;-59
2022/06/20 00:55:11;;;;;;;;;;;;;;;24.49;49.18;97123.50;5088221;28;20030;-59
2022/06/20 00:57:43;;;;;;;;;;;;;;;24.69;48.65;97122.78;5092793;28;19920;-59
2022/06/20 01:00:12;;;;;;;;;;;;;;;24.78;48.36;97123.03;5088314;28;19920;-59
2022/06/20 01:02:43;;;;;;;;;;;;;;;24.84;47.70;97121.34;5085232;28;20391;-59
2022/06/20 01:05:13;;;;;;;;;;;;;;;24.67;48.16;97116.88;5090585;28;20333;-59
2022/06/20 01:07:42;;;;;;;;;;;;;;;24.27;49.29;97113.94;5076179;28;20390;-59
2022/06/20 01:10:11;;;;;;;;;;;;;;;24.46;48.73;97118.03;5093933;28;20381;-58
2022/06/20 01:12:42;;;;;;;;;;;;;;;24.31;49.15;97117.47;5092609;28;19920;-58
2022/06/20 01:15:20;;;;;;;;;;;;;;;24.09;50.14;97121.78;5073630;28;19935;-59
2022/06/20 01:17:50;;;;;;;;;;;;;;;24.09;50.18;97119.78;5071955;28;19951;-59
2022/06/20 01:20:27;;;;;;;;;;;;;;;24.41;49.36;97122.09;5082110;28;19920;-59
2022/06/20 01:22:58;;;;;;;;;;;;;;;24.19;49.52;97121.63;5092098;28;19920;-59
2022/06/20 01:25:41;;;;;;;;;;;;;;;24.20;49.95;97119.63;5093418;28;19920;-58
2022/06/20 01:28:35;;;;;;;;;;;;;;;24.38;49.45;97130.47;5088932;28;19920;-55
2022/06/20 01:31:29;;;;;;;;;;;;;;;24.27;49.25;97138.94;5093636;28;20388;-58
2022/06/20 01:33:59;;;;;;;;;;;;;;;24.28;49.04;97143.28;5091037;28;19950;-58
2022/06/20 01:39:19;;;;;;;;;;;;;;;23.98;49.82;97144.13;5093913;28;20015;-59
2022/06/20 01:44:36;;;;;;;;;;;;;;;23.79;51.14;97140.03;5093623;28;19924;-59
2022/06/20 01:47:04;;;;;;;;;;;;;;;23.84;50.16;97145.13;5093287;28;19946;-59
2022/06/20 01:49:33;;;;;;;;;;;;;;;23.66;50.50;97139.03;5093457;28;19920;-59
2022/06/20 01:52:03;;;;;;;;;;;;;;;23.59;50.79;97139.88;5093570;28;19920;-59
2022/06/20 01:54:32;;;;;;;;;;;;;;;23.88;50.45;97133.97;5091061;28;19920;-59
2022/06/20 01:57:00;;;;;;;;;;;;;;;24.00;49.73;97136.94;5091783;28;19920;-59
2022/06/20 01:59:29;;;;;;;;;;;;;;;23.88;50.00;97151.41;5091985;28;19920;-58
2022/06/20 02:01:58;;;;;;;;;;;;;;;23.60;50.82;97149.00;5090760;28;19925;-58
2022/06/20 02:04:28;;;;;;;;;;;;;;;23.60;50.63;97144.22;5091812;28;19920;-59
2022/06/20 02:06:57;;;;;;;;;;;;;;;23.38;51.13;97140.91;5094532;28;19920;-58
2022/06/20 02:09:26;;;;;;;;;;;;;;;23.36;51.70;97132.25;5095691;28;19920;-59
2022/06/20 02:11:54;;;;;;;;;;;;;;;23.34;51.77;97140.19;5095450;28;19927;-58
2022/06/20 02:14:22;;;;;;;;;;;;;;;23.25;51.90;97137.91;5097079;28;20043;-59
2022/06/20 02:16:52;;;;;;;;;;;;;;;23.17;52.38;97146.72;5089233;28;19928;-58
2022/06/20 02:19:25;;;;;;;;;;;;;;;23.06;52.59;97143.28;5097078;28;20417;-59
2022/06/20 02:21:53;;;;;;;;;;;;;;;23.01;52.93;97150.06;5080921;28;19927;-59
2022/06/20 02:24:21;;;;;;;;;;;;;;;23.04;52.98;97154.00;5084303;28;19927;-58
2022/06/20 02:26:53;;;;;;;;;;;;;;;22.96;53.17;97159.63;5093727;28;19969;-59
2022/06/20 02:29:22;;;;;;;;;;;;;;;22.88;53.64;97166.41;5096969;28;19949;-59
2022/06/20 02:31:52;;;;;;;;;;;;;;;22.90;53.42;97164.00;5096893;28;19923;-59
2022/06/20 02:34:21;;;;;;;;;;;;;;;22.85;53.83;97155.31;5078779;28;19969;-58
2022/06/20 02:36:50;;;;;;;;;;;;;;;22.83;53.85;97160.50;5096731;28;20276;-59
2022/06/20 02:39:18;;;;;;;;;;;;;;;22.87;53.67;97164.03;5094655;28;19924;-59
2022/06/20 02:41:47;;;;;;;;;;;;;;;22.83;53.94;97161.28;5096933;28;19920;-58
2022/06/20 02:44:17;;;;;;;;;;;;;;;22.76;54.28;97161.38;5094376;28;20265;-58
2022/06/20 02:46:47;;;;;;;;;;;;;;;22.91;53.92;97157.28;5096527;28;19924;-59
2022/06/20 02:49:15;;;;;;;;;;;;;;;22.84;54.03;97154.53;5096303;28;20252;-59
2022/06/20 02:51:47;;;;;;;;;;;;;;;22.78;54.12;97153.41;5096428;28;19963;-59
2022/06/20 02:54:15;;;;;;;;;;;;;;;22.99;53.73;97146.91;5092789;28;19939;-59
2022/06/20 02:56:44;;;;;;;;;;;;;;;23.06;53.27;97134.97;5096540;28;19924;-58
2022/06/20 02:59:14;;;;;;;;;;;;;;;22.99;53.78;97131.06;5094866;28;20011;-59
2022/06/20 03:01:43;;;;;;;;;;;;;;;23.02;53.58;97128.69;5093374;28;19927;-58
2022/06/20 03:04:12;;;;;;;;;;;;;;;23.05;53.22;97122.31;5082480;28;19973;-58
2022/06/20 03:06:45;;;;;;;;;;;;;;;23.26;52.55;97117.31;5077367;28;20393;-59
2022/06/20 03:09:38;;;;;;;;;;;;;;;23.09;52.90;97114.75;5077299;28;19924;-58
2022/06/20 03:12:31;;;;;;;;;;;;;;;23.44;52.24;97111.56;5096082;28;19920;-59
2022/06/20 03:15:00;;;;;;;;;;;;;;;23.45;51.97;97095.72;5095694;28;19970;-59
2022/06/20 03:17:29;;;;;;;;;;;;;;;23.51;51.78;97096.81;5075474;28;20364;-59
2022/06/20 03:19:58;;;;;;;;;;;;;;;23.57;51.75;97092.38;5093906;28;19927;-59
2022/06/20 03:22:28;;;;;;;;;;;;;;;23.23;52.51;97089.66;5094170;28;19920;-59
2022/06/20 03:24:59;;;;;;;;;;;;;;;23.33;52.33;97080.44;5096123;28;20414;-59
2022/06/20 03:27:29;;;;;;;;;;;;;;;23.29;52.33;97085.22;5095478;28;19920;-59
2022/06/20 03:29:58;;;;;;;;;;;;;;;22.99;53.35;97081.22;5095489;28;19920;-59
2022/06/20 03:32:28;;;;;;;;;;;;;;;23.11;53.08;97082.66;5095538;28;20031;-59
2022/06/20 03:34:56;;;;;;;;;;;;;;;23.21;52.52;97080.97;5095542;28;19920;-59
2022/06/20 03:37:25;;;;;;;;;;;;;;;23.20;52.60;97084.94;5095489;28;19920;-59
2022/06/20 03:39:53;;;;;;;;;;;;;;;23.21;52.32;97084.50;5095439;28;19923;-58
2022/06/20 03:42:21;;;;;;;;;;;;;;;23.07;53.03;97084.72;5092892;28;19920;-59
2022/06/20 03:44:50;;;;;;;;;;;;;;;22.93;53.40;97082.88;5074062;28;20372;-59
2022/06/20 03:47:21;;;;;;;;;;;;;;;23.15;52.91;97079.84;5095297;28;20429;-59
2022/06/20 03:49:53;;;;;;;;;;;;;;;23.15;52.69;97090.94;5093055;28;20398;-59
2022/06/20 03:52:22;;;;;;;;;;;;;;;22.95;53.40;97091.53;5095110;28;20344;-59
2022/06/20 03:55:15;;;;;;;;;;;;;;;22.97;53.51;97091.16;5076887;28;19993;-59
2022/06/20 03:57:45;;;;;;;;;;;;;;;22.85;53.73;97111.03;5092441;28;19931;-59
2022/06/20 04:00:14;;;;;;;;;;;;;;;22.66;54.16;97112.41;5087340;28;19924;-59
2022/06/20 04:02:45;;;;;;;;;;;;;;;22.63;54.35;97119.53;5089568;28;19919;-59
2022/06/20 04:05:17;;;;;;;;;;;;;;;22.58;54.61;97136.59;5088247;28;19974;-59
2022/06/20 04:07:46;;;;;;;;;;;;;;;22.73;54.16;97146.34;5090172;28;20352;-59
2022/06/20 04:13:07;;;;;;;;;;;;;;;22.79;53.78;97149.44;5076530;28;19972;-59
2022/06/20 04:15:38;;;;;;;;;;;;;;;22.67;54.05;97149.97;5095543;28;19920;-59
2022/06/20 04:18:30;;;;;;;;;;;;;;;22.70;53.76;97157.47;5070513;28;20369;-59
2022/06/20 04:21:06;;;;;;;;;;;;;;;22.83;53.74;97166.81;5064857;28;19920;-59
2022/06/20 04:24:19;;;;;;;;;;;;;;;22.97;53.79;97172.25;5092469;28;19928;-59
2022/06/20 04:27:09;;;;;;;;;;;;;;;22.97;53.20;97182.56;5094228;28;19955;-60
2022/06/20 04:29:59;;;;;;;;;;;;;;;23.01;53.16;97199.94;5094022;28;19924;-59
2022/06/20 04:32:48;;;;;;;;;;;;;;;23.07;52.99;97211.38;5094209;28;20288;-59
2022/06/20 04:35:37;;;;;;;;;;;;;;;23.10;53.18;97222.38;5085586;28;19974;-59
2022/06/20 04:38:29;;;;;;;;;;;;;;;23.02;53.85;97229.22;5085993;28;19920;-58
2022/06/20 04:41:18;;;;;;;;;;;;;;;22.89;54.42;97237.22;5093132;28;20366;-59
2022/06/20 04:44:31;;;;;;;;;;;;;;;22.84;54.31;97234.84;5091147;28;20290;-59
2022/06/20 04:47:29;;;;;;;;;;;;;;;22.81;54.57;97241.22;5093903;28;19924;-59
2022/06/20 04:50:19;;;;;;;;;;;;;;;22.86;54.75;97251.88;5093624;28;19927;-57
2022/06/20 04:52:47;;;;;;;;;;;;;;;22.82;54.78;97247.56;5092532;28;19966;-59
2022/06/20 04:55:18;;;;;;;;;;;;;;;22.83;55.05;97266.53;5079002;28;19965;-59
2022/06/20 04:57:50;;;;;;;;;;;;;;;22.78;55.63;97261.41;5092275;28;19920;-58
2022/06/20 05:00:19;;;;;;;;;;;;;;;22.82;55.84;97267.72;5088788;28;19921;-59
2022/06/20 05:02:47;;;;;;;;;;;;;;;22.84;56.00;97270.09;5074149;28;19927;-59
2022/06/20 05:05:40;;;;;;;;;;;;;;;22.77;56.03;97279.22;5088383;28;19920;-60
2022/06/20 05:08:11;;;;;;;;;;;;;;;22.62;56.74;97270.25;5094270;28;20000;-59
2022/06/20 05:10:41;;;;;;;;;;;;;;;22.72;56.63;97238.13;5072232;28;19920;-59
2022/06/20 05:13:12;;;;;;;;;;;;;;;22.62;56.65;97244.53;5091267;28;20063;-59
2022/06/20 05:15:41;;;;;;;;;;;;;;;22.57;56.58;97233.91;5083735;28;19926;-59
2022/06/20 05:18:12;;;;;;;;;;;;;;;22.39;56.83;97232.06;5080892;28;19928;-58
2022/06/20 05:20:40;;;;;;;;;;;;;;;22.65;56.22;97225.13;5092897;28;19920;-58
2022/06/20 05:23:10;;;;;;;;;;;;;;;22.22;57.16;97241.25;5093597;28;19920;-59
2022/06/20 05:25:38;;;;;;;;;;;;;;;22.21;57.17;97245.19;5097897;28;19972;-59
2022/06/20 05:31:02;;;;;;;;;;;;;;;22.18;56.89;97273.69;5088338;28;20064;-60
2022/06/20 05:34:20;;;;;;;;;;;;;;;22.09;57.52;97312.81;5074956;28;20379;-59
2022/06/20 05:36:50;;;;;;;;;;;;;;;22.15;57.48;97315.97;5092510;28;20390;-59
2022/06/20 05:39:20;;;;;;;;;;;;;;;22.15;57.17;97316.75;5093828;28;19955;-59
2022/06/20 05:41:51;;;;;;;;;;;;;;;22.20;57.24;97310.03;5094600;28;20267;-58
2022/06/20 05:44:23;;;;;;;;;;;;;;;22.23;57.31;97300.94;5091127;28;20204;-59
2022/06/20 05:46:53;;;;;;;;;;;;;;;22.29;56.93;97279.16;5095150;28;19931;-58
2022/06/20 05:49:21;;;;;;;;;;;;;;;22.32;57.14;97304.06;5093259;28;19926;-59
2022/06/20 05:51:49;;;;;;;;;;;;;;;22.16;57.25;97278.84;5092239;28;19944;-57
2022/06/20 05:54:18;;;;;;;;;;;;;;;21.87;59.11;97281.69;5087574;28;19955;-58
2022/06/20 05:56:48;;;;;;;;;;;;;;;21.82;59.61;97221.28;5097176;28;20029;-61
2022/06/20 05:59:27;;;;;;;;;;;;;;;21.59;60.65;97207.16;5096133;28;19920;-58
2022/06/20 06:01:56;;;;;;;;;;;;;;;21.55;60.70;97245.88;5077536;28;19924;-60
2022/06/20 06:04:25;;;;;;;;;;;;;;;21.45;61.37;97266.81;5090015;28;19983;-60
2022/06/20 06:06:55;;;;;;;;;;;;;;;21.58;60.83;97332.75;5094144;28;19920;-59
2022/06/20 06:09:34;;;;;;;;;;;;;;;21.64;60.68;97383.66;5082571;28;19927;-59
2022/06/20 06:12:03;;;;;;;;;;;;;;;21.75;61.06;97384.44;5076336;28;20018;-60
2022/06/20 06:14:59;;;;;;;;;;;;;;;21.88;60.20;97373.72;5087527;28;20169;-60
2022/06/20 06:17:30;;;;;;;;;;;;;;;21.92;59.18;97353.19;5093739;28;19959;-54
2022/06/20 06:20:13;;;;;;;;;;;;;;;21.90;59.78;97377.69;5082137;28;19920;-60
2022/06/20 06:22:43;;;;;;;;;;;;;;;21.83;60.25;97385.97;5088175;28;20011;-60
2022/06/20 06:25:23;;;;;;;;;;;;;;;21.75;60.40;97395.50;5078983;28;19927;-59
2022/06/20 06:27:52;;;;;;;;;;;;;;;21.79;60.38;97404.56;5090967;28;20319;-60
2022/06/20 06:30:22;;;;;;;;;;;;;;;21.88;60.08;97402.16;5075835;28;19927;-59
2022/06/20 06:32:51;;;;;;;;;;;;;;;21.84;59.83;97406.94;5092779;28;19962;-60
2022/06/20 06:35:21;;;;;;;;;;;;;;;21.86;60.13;97415.63;5093881;28;20276;-60
2022/06/20 06:37:50;;;;;;;;;;;;;;;21.94;60.20;97417.19;5094662;28;19931;-59
2022/06/20 06:40:19;;;;;;;;;;;;;;;21.83;61.24;97426.69;5077933;28;19920;-59
2022/06/20 06:42:47;;;;;;;;;;;;;;;21.65;62.69;97421.19;5087863;28;19921;-59
2022/06/20 06:45:17;;;;;;;;;;;;;;;21.52;63.55;97412.50;5081836;28;20014;-60
2022/06/20 06:47:48;;;;;;;;;;;;;;;21.47;64.43;97457.13;5078122;28;19969;-59
2022/06/20 06:50:18;;;;;;;;;;;;;;;21.35;65.12;97436.16;5096395;28;19928;-60
2022/06/20 06:52:47;;;;;;;;;;;;;;;21.23;65.58;97447.59;5096663;28;19924;-60
2022/06/20 06:55:20;;;;;;;;;;;;;;;21.13;65.80;97420.72;5096522;28;20027;-59
2022/06/20 06:57:50;;;;;;;;;;;;;;;21.11;66.28;97392.72;5075399;28;19927;-60
2022/06/20 07:00:20;;;;;;;;;;;;;;;21.06;66.52;97380.09;5094487;28;19962;-60
2022/06/20 07:02:54;;;;;;;;;;;;;;;20.76;67.12;97338.25;5093417;28;19932;-60
2022/06/20 07:05:24;;;;;;;;;;;;;;;21.04;66.36;97313.44;5092926;28;19920;-59
2022/06/20 07:07:52;;;;;;;;;;;;;;;20.80;68.72;97295.66;5081704;28;19926;-59
2022/06/20 07:10:22;;;;;;;;;;;;;;;20.96;66.53;97277.91;5094907;28;19982;-60
2022/06/20 07:12:52;;;;;;;;;;;;;;;21.15;65.85;97272.00;5086849;28;20264;-60
2022/06/20 07:15:21;;;;;;;;;;;;;;;20.83;67.66;97277.53;5084747;28;20352;-60
2022/06/20 07:17:51;;;;;;;;;;;;;;;21.11;66.69;97279.47;5076560;28;20228;-60
2022/06/20 07:20:20;;;;;;;;;;;;;;;21.23;66.72;97290.13;5094465;28;19973;-60
2022/06/20 07:22:49;;;;;;;;;;;;;;;21.36;67.57;97299.63;5093843;28;20015;-60
2022/06/20 07:25:17;;;;;;;;;;;;;;;21.36;68.69;97331.97;5074137;28;19927;-60
2022/06/20 07:27:47;;;;;;;;;;;;;;;21.19;67.36;97337.06;5090448;28;19995;-61
2022/06/20 07:30:19;;;;;;;;;;;;;;;21.41;66.96;97326.84;5091328;28;19950;-60
2022/06/20 07:32:50;;;;;;;;;;;;;;;21.23;67.07;97350.09;5091374;28;19973;-59
2022/06/20 07:35:25;;;;;;;;;;;;;;;21.23;67.15;97384.03;5077953;28;19946;-60
2022/06/20 07:37:54;;;;;;;;;;;;;;;21.35;66.26;97358.81;5085959;28;19920;-60
2022/06/20 07:40:24;;;;;;;;;;;;;;;21.50;66.47;97350.50;5091903;28;19971;-63
2022/06/20 07:42:55;;;;;;;;;;;;;;;21.53;65.70;97330.38;5075228;28;19920;-60
2022/06/20 07:45:24;;;;;;;;;;;;;;;21.59;65.90;97307.47;5078618;28;19965;-60
2022/06/20 07:47:53;;;;;;;;;;;;;;;21.78;63.74;97269.47;5089225;28;19927;-59
2022/06/20 07:50:22;;;;;;;;;;;;;;;21.81;63.96;97266.72;5093717;28;19924;-60
2022/06/20 07:52:53;;;;;;;;;;;;;;;21.65;65.75;97289.28;5093745;28;19920;-59
2022/06/20 07:58:18;;;;;;;;;;;;;;;21.82;64.56;97298.69;5073581;28;19955;-60
2022/06/20 08:00:48;;;;;;;;;;;;;;;21.85;65.40;97292.38;5080964;28;19963;-67
2022/06/20 08:03:17;;;;;;;;;;;;;;;22.26;62.01;97302.09;5092237;28;19930;-59
2022/06/20 08:05:45;;;;;;;;;;;;;;;22.07;63.70;97339.31;5078409;28;19920;-61
2022/06/20 08:08:18;;;;;;;;;;;;;;;22.02;63.83;97373.69;5090915;28;19965;-60
2022/06/20 08:10:46;;;;;;;;;;;;;;;22.11;64.13;97423.13;5090924;28;20427;-60
2022/06/20 08:13:16;;;;;;;;;;;;;;;22.10;63.60;97454.69;5092437;28;19927;-60
2022/06/20 08:15:46;;;;;;;;;;;;;;;22.17;63.87;97471.31;5093323;28;20028;-60
2022/06/20 08:18:14;;;;;;;;;;;;;;;21.90;63.01;97449.59;5087422;28;19926;-60
2022/06/20 08:20:43;;;;;;;;;;;;;;;21.87;63.19;97452.34;5084514;28;19920;-60
2022/06/20 08:23:15;;;;;;;;;;;;;;;22.08;64.30;97440.47;5095365;28;20011;-61
2022/06/20 08:25:46;;;;;;;;;;;;;;;21.97;64.21;97402.56;5092161;28;19926;-60
2022/06/20 08:28:16;;;;;;;;;;;;;;;21.96;63.45;97389.13;5092119;28;19927;-60
2022/06/20 08:31:34;;;;;;;;;;;;;;;21.79;62.50;97390.75;5094647;28;19920;-60
2022/06/20 08:34:29;;;;;;;;;;;;;;;21.81;63.83;97407.72;5093307;28;20426;-60
2022/06/20 08:36:58;;;;;;;;;;;;;;;21.90;63.35;97435.78;5087735;28;19963;-59
2022/06/20 08:39:27;;;;;;;;;;;;;;;21.90;63.12;97452.38;5093425;28;20322;-61
2022/06/20 08:42:17;;;;;;;;;;;;;;;21.92;63.18;97438.13;5091093;28;20260;-61
2022/06/20 08:44:53;;;;;;;;;;;;;;;22.04;62.91;97431.38;5094418;28;19920;-61
2022/06/20 08:47:30;;;;;;;;;;;;;;;22.13;62.94;97412.44;5094598;28;19924;-61
2022/06/20 08:50:25;;;;;;;;;;;;;;;22.32;61.63;97403.69;5088843;28;19985;-60
2022/06/20 08:53:41;;;;;;;;;;;;;;;22.78;61.51;97399.09;5075650;28;19931;-61
2022/06/20 08:56:18;;;;;;;;;;;;;;;22.97;60.08;97402.19;4988993;28;19973;-60
2022/06/20 08:58:51;;;;;;;;;;;;;;;22.78;61.34;97402.66;5062726;28;19978;-60
2022/06/20 09:01:38;;;;;;;;;;;;;;;22.90;60.49;97407.75;5074249;28;19939;-61
2022/06/20 09:04:54;;;;;;;;;;;;;;;23.13;59.34;97398.13;5083373;28;19927;-61
2022/06/20 09:07:51;;;;;;;;;;;;;;;23.26;58.46;97393.66;5091189;28;19927;-61
2022/06/20 09:10:45;;;;;;;;;;;;;;;23.07;58.11;97397.78;5076512;28;19920;-61
2022/06/20 09:13:42;;;;;;;;;;;;;;;23.26;58.21;97404.75;5073777;28;19942;-61
2022/06/20 09:16:34;;;;;;;;;;;;;;;23.29;57.39;97426.13;5073256;28;20263;-60
2022/06/20 09:19:51;;;;;;;;;;;;;;;23.64;57.21;97436.16;5089346;28;20364;-61
2022/06/20 09:22:43;;;;;;;;;;;;;;;23.95;56.00;97445.38;5093116;28;19920;-61
2022/06/20 09:25:38;;;;;;;;;;;;;;;23.78;54.92;97446.34;5077803;28;19927;-61
2022/06/20 09:28:40;;;;;;;;;;;;;;;23.77;53.86;97436.44;5093724;28;19919;-60
2022/06/20 09:32:33;;;;;;;;;;;;;;;23.82;54.43;97430.47;5092464;28;19924;-61
2022/06/20 09:35:30;;;;;;;;;;;;;;;24.05;53.00;97427.06;5089268;28;19928;-62
2022/06/20 09:38:30;;;;;;;;;;;;;;;24.18;52.70;97439.22;5091841;28;20260;-61
2022/06/20 09:41:20;;;;;;;;;;;;;;;24.19;51.89;97432.47;5080751;28;19932;-61
2022/06/20 09:47:29;;;;;;;;;;;;;;;24.17;51.37;97440.41;5092277;28;19928;-60
2022/06/20 09:50:36;;;;;;;;;;;;;;;24.29;51.35;97425.22;5089087;28;19978;-60
2022/06/20 09:53:28;;;;;;;;;;;;;;;24.40;51.25;97409.25;5073512;28;20341;-60
2022/06/20 09:56:18;;;;;;;;;;;;;;;24.70;50.81;97385.44;5069584;28;19921;-60
2022/06/20 10:02:21;;;;;;;;;;;;;;;24.81;49.55;97394.41;5092662;28;19926;-60
2022/06/20 10:05:13;;;;;;;;;;;;;;;24.89;49.45;97384.00;5087421;28;20387;-60
2022/06/20 10:08:02;;;;;;;;;;;;;;;25.14;48.88;97387.25;5091483;28;19920;-60
2022/06/20 10:10:54;;;;;;;;;;;;;;;25.10;48.61;97397.63;5089847;28;19920;-60
2022/06/20 10:13:44;;;;;;;;;;;;;;;25.09;49.36;97382.16;5091835;28;19920;-60
2022/06/20 10:16:35;;;;;;;;;;;;;;;25.08;48.50;97386.13;5093298;28;19927;-59
2022/06/20 10:19:26;;;;;;;;;;;;;;;25.10;48.08;97389.28;5089916;28;19920;-60
2022/06/20 10:22:17;;;;;;;;;;;;;;;25.15;48.31;97401.91;5075526;28;19927;-59
2022/06/20 10:25:32;;;;;;;;;;;;;;;25.17;48.22;97393.94;5087379;28;19920;-60
2022/06/20 10:28:31;;;;;;;;;;;;;;;25.25;48.16;97400.97;5052791;28;20379;-59
2022/06/20 10:31:25;;;;;;;;;;;;;;;25.29;48.12;97399.69;5096608;28;19927;-60
2022/06/20 10:34:37;;;;;;;;;;;;;;;25.52;47.84;97412.06;5096368;28;19932;-59
2022/06/20 10:37:27;;;;;;;;;;;;;;;25.48;47.46;97408.53;5087950;28;19928;-60
2022/06/20 10:40:18;;;;;;;;;;;;;;;25.55;47.52;97411.19;5076499;28;19963;-60
2022/06/20 10:43:07;;;;;;;;;;;;;;;25.72;47.12;97421.22;5093343;28;20010;-59
2022/06/20 10:45:59;;;;;;;;;;;;;;;25.61;47.19;97429.75;5091866;28;19965;-60
2022/06/20 10:48:50;;;;;;;;;;;;;;;25.91;45.61;97416.97;5095661;28;19920;-59
2022/06/20 10:54:56;;;;;;;;;;;;;;;25.83;46.05;97421.06;5096656;28;19927;-60
2022/06/20 10:57:47;;;;;;;;;;;;;;;25.76;45.50;97416.44;5095285;28;19927;-60
2022/06/20 11:00:38;;;;;;;;;;;;;;;25.99;44.99;97409.25;5091467;28;19977;-61
2022/06/20 11:03:44;;;;;;;;;;;;;;;25.81;44.84;97415.16;5091748;28;19920;-60
2022/06/20 11:09:53;;;;;;;;;;;;;;;25.99;45.33;97414.81;5095779;28;19931;-60
2022/06/20 11:12:45;;;;;;;;;;;;;;;26.08;44.71;97424.19;5095137;28;20020;-60
2022/06/20 11:15:34;;;;;;;;;;;;;;;25.98;44.44;97435.53;5092812;28;20039;-59
2022/06/20 11:18:29;;;;;;;;;;;;;;;26.05;44.59;97438.19;5095620;28;20356;-60
2022/06/20 11:21:22;;;;;;;;;;;;;;;26.08;43.85;97446.47;5093089;28;19920;-60
2022/06/20 11:24:37;;;;;;;;;;;;;;;25.97;44.29;97443.09;5092475;28;20020;-60
2022/06/20 11:27:32;;;;;;;;;;;;;;;25.97;43.96;97445.09;5073651;28;20015;-60
2022/06/20 11:30:23;;;;;;;;;;;;;;;26.31;43.05;97436.50;5093801;28;19924;-60
2022/06/20 11:33:21;;;;;;;;;;;;;;;26.20;42.90;97453.41;5094651;28;20015;-59
2022/06/20 11:36:11;;;;;;;;;;;;;;;26.17;43.08;97451.50;5090995;28;19935;-60
2022/06/20 11:39:03;;;;;;;;;;;;;;;26.01;44.03;97454.97;5093667;28;19963;-60
2022/06/20 11:41:53;;;;;;;;;;;;;;;26.16;43.35;97451.91;5090478;28;19920;-60
2022/06/20 11:44:47;;;;;;;;;;;;;;;26.07;43.33;97444.91;5095219;28;19920;-60
2022/06/20 11:47:51;;;;;;;;;;;;;;;25.85;43.44;97465.97;5089944;28;19920;-59
2022/06/20 11:50:40;;;;;;;;;;;;;;;25.68;44.61;97472.59;5092384;28;19994;-60
2022/06/20 11:53:32;;;;;;;;;;;;;;;25.66;43.39;97472.22;5092286;28;19920;-59
2022/06/20 11:56:22;;;;;;;;;;;;;;;25.78;43.78;97472.44;5090800;28;20380;-60
2022/06/20 12:00:03;;;;;;;;;;;;;;;25.76;42.66;97479.63;5074394;28;20343;-60
2022/06/20 12:03:00;;;;;;;;;;;;;;;25.46;43.50;97484.06;5094040;28;20012;-60
2022/06/20 12:05:51;;;;;;;;;;;;;;;25.59;44.33;97482.25;5089453;28;19927;-59
2022/06/20 12:08:52;;;;;;;;;;;;;;;25.71;43.88;97471.75;5093743;28;19924;-59
2022/06/20 12:11:42;;;;;;;;;;;;;;;25.59;43.54;97487.81;5093614;28;19982;-59
2022/06/20 12:14:34;;;;;;;;;;;;;;;25.30;43.70;97497.78;5092247;28;19924;-59
2022/06/20 12:17:48;;;;;;;;;;;;;;;25.18;44.01;97487.25;5092360;28;19924;-59
2022/06/20 12:23:45;;;;;;;;;;;;;;;24.95;44.55;97527.63;5081920;28;19927;-59
2022/06/20 12:26:39;;;;;;;;;;;;;;;24.94;44.79;97519.69;5073600;28;20017;-59
2022/06/20 12:29:31;;;;;;;;;;;;;;;25.11;44.38;97515.16;5082450;28;19920;-59
2022/06/20 12:32:27;;;;;;;;;;;;;;;24.83;45.13;97542.84;5089688;28;20305;-59
2022/06/20 12:35:17;;;;;;;;;;;;;;;24.61;46.31;97557.38;5079073;28;20009;-59
2022/06/20 12:38:10;;;;;;;;;;;;;;;24.38;46.43;97572.66;5072512;28;19920;-58
2022/06/20 12:40:59;;;;;;;;;;;;;;;24.13;46.86;97585.94;5092704;28;20245;-59
2022/06/20 12:43:49;;;;;;;;;;;;;;;23.73;47.69;97577.13;5092861;28;19927;-58
2022/06/20 12:46:41;;;;;;;;;;;;;;;23.69;47.91;97577.16;5093480;28;20014;-60
2022/06/20 12:49:34;;;;;;;;;;;;;;;23.75;48.00;97574.72;5091751;28;19926;-59
2022/06/20 12:55:55;;;;;;;;;;;;;;;23.60;48.64;97606.53;5091202;28;19943;-60
2022/06/20 12:59:04;;;;;;;;;;;;;;;23.67;48.42;97606.50;5092340;28;19974;-60
2022/06/20 13:01:54;;;;;;;;;;;;;;;23.66;48.12;97614.03;5093620;28;19920;-60
2022/06/20 13:04:48;;;;;;;;;;;;;;;23.48;48.45;97616.84;5091042;28;20034;-60
2022/06/20 13:08:19;;;;;;;;;;;;;;;23.68;48.94;97624.72;5070816;28;19920;-60
2022/06/20 13:11:19;;;;;;;;;;;;;;;23.55;48.79;97620.81;5072138;28;19920;-60
2022/06/20 13:14:11;;;;;;;;;;;;;;;23.68;48.45;97619.94;5088018;28;19920;-60
2022/06/20 13:17:03;;;;;;;;;;;;;;;23.68;48.63;97621.94;5092899;28;20060;-60
2022/06/20 13:20:15;;;;;;;;;;;;;;;23.79;48.51;97630.97;5091104;28;20225;-60
2022/06/20 13:23:21;;;;;;;;;;;;;;;23.72;48.46;97642.13;5089836;28;19973;-60
2022/06/20 13:26:14;;;;;;;;;;;;;;;23.89;48.70;97635.69;5092249;28;20304;-60
2022/06/20 13:29:07;;;;;;;;;;;;;;;23.97;48.55;97620.56;5091397;28;20276;-59
2022/06/20 13:31:56;;;;;;;;;;;;;;;23.77;48.64;97638.94;5093121;28;20427;-60
2022/06/20 13:34:47;;;;;;;;;;;;;;;23.77;48.62;97644.47;5091189;28;19920;-59
2022/06/20 13:38:03;;;;;;;;;;;;;;;23.77;48.78;97636.94;5090401;28;20280;-60
2022/06/20 13:40:53;;;;;;;;;;;;;;;23.51;49.55;97635.47;5091544;28;19924;-60
2022/06/20 13:43:45;;;;;;;;;;;;;;;23.51;49.34;97649.31;5081191;28;19940;-60
2022/06/20 13:46:36;;;;;;;;;;;;;;;23.18;49.94;97647.09;5071702;28;20217;-60
2022/06/20 13:49:26;;;;;;;;;;;;;;;23.12;50.36;97643.16;5078510;28;19989;-60
2022/06/20 13:52:15;;;;;;;;;;;;;;;23.37;49.75;97654.94;5092472;28;19932;-60
2022/06/20 13:55:30;;;;;;;;;;;;;;;23.10;50.44;97645.53;5089418;28;19927;-61
2022/06/20 13:58:20;;;;;;;;;;;;;;;23.03;50.62;97654.66;5093804;28;19920;-60
2022/06/20 14:01:09;;;;;;;;;;;;;;;22.87;51.06;97652.28;5073669;28;20062;-58
2022/06/20 14:03:59;;;;;;;;;;;;;;;22.89;50.65;97660.22;5090266;28;20292;-60
2022/06/20 14:06:50;;;;;;;;;;;;;;;22.85;50.97;97662.16;5094313;28;19924;-60
2022/06/20 14:09:42;;;;;;;;;;;;;;;22.57;51.50;97668.53;5094778;28;20280;-60
2022/06/20 14:12:31;;;;;;;;;;;;;;;22.34;51.99;97655.09;5093990;28;20383;-59
2022/06/20 14:15:21;;;;;;;;;;;;;;;22.39;52.34;97658.28;5096806;28;19974;-61
2022/06/20 14:18:15;;;;;;;;;;;;;;;22.48;51.58;97661.44;5085938;28;19920;-60
2022/06/20 14:21:08;;;;;;;;;;;;;;;22.59;51.30;97660.66;5093805;28;19942;-60
2022/06/20 14:23:39;;;;;;;;;;;;;;;22.21;51.98;97658.28;5097694;28;19920;-60
2022/06/20 14:26:08;;;;;;;;;;;;;;;22.22;52.13;97661.84;5097664;28;20420;-60
2022/06/20 14:28:38;;;;;;;;;;;;;;;22.28;51.94;97645.63;5095630;28;20361;-60
2022/06/20 14:31:31;;;;;;;;;;;;;;;22.29;52.21;97641.66;5095243;28;19973;-60